Time;durP1;ratioP1;P1;durP2;ratioP2;P2;SDS_P1;SDS_P2;PMS_P1;PMS_P2;Temp;Humidity;BMP_temperature;BMP_pressure;BME280_temperature;BME280_humidity;BME280_pressure;Samples;Min_cycle;Max_cycle;Signal;HPM_P1;HPM_P2
2023/12/13 00:00:00;;;;;;;14.80;13.23;;;;;;;;;;4945892;28;20214;-78
2023/12/13 00:02:25;;;;;;;15.07;13.57;;;;;;;;;;4988171;28;20246;-78
2023/12/13 00:04:51;;;;;;;14.47;13.03;;;;;;;;;;4973155;28;20314;-78
2023/12/13 00:07:16;;;;;;;16.03;14.33;;;;;;;;;;4955650;28;20218;-78
2023/12/13 00:09:44;;;;;;;15.03;12.87;;;;;;;;;;4952788;28;20727;-78
2023/12/13 00:12:10;;;;;;;14.00;12.60;;;;;;;;;;4973550;28;20213;-77
2023/12/13 00:14:35;;;;;;;14.30;12.73;;;;;;;;;;4970931;28;20279;-78
2023/12/13 00:17:01;;;;;;;15.27;13.07;;;;;;;;;;4941626;28;20221;-78
2023/12/13 00:19:28;;;;;;;13.33;12.10;;;;;;;;;;4956500;28;20225;-77
2023/12/13 00:21:54;;;;;;;13.20;12.10;;;;;;;;;;4959960;28;20230;-77
2023/12/13 00:24:22;;;;;;;14.00;12.70;;;;;;;;;;4986608;28;20254;-79
2023/12/13 00:26:49;;;;;;;13.30;12.10;;;;;;;;;;4969082;28;20210;-78
2023/12/13 00:29:14;;;;;;;14.47;12.93;;;;;;;;;;4950978;28;20237;-78
2023/12/13 00:31:42;;;;;;;12.90;11.80;;;;;;;;;;4951978;28;20245;-78
2023/12/13 00:34:10;;;;;;;12.70;11.50;;;;;;;;;;4971079;28;20228;-77
2023/12/13 00:36:36;;;;;;;13.00;11.70;;;;;;;;;;4939986;28;20203;-78
2023/12/13 00:39:03;;;;;;;12.97;11.70;;;;;;;;;;4992599;28;20573;-78
2023/12/13 00:41:30;;;;;;;13.67;11.07;;;;;;;;;;4980919;28;20438;-78
2023/12/13 00:44:01;;;;;;;12.00;10.90;;;;;;;;;;4958530;28;20221;-78
2023/12/13 00:46:31;;;;;;;12.17;11.07;;;;;;;;;;4989387;28;20218;-78
2023/12/13 00:49:03;;;;;;;11.80;10.57;;;;;;;;;;4973326;28;20210;-78
2023/12/13 00:51:29;;;;;;;12.20;11.10;;;;;;;;;;4926257;28;20230;-78
2023/12/13 00:53:54;;;;;;;12.80;11.60;;;;;;;;;;4990393;28;20217;-77
2023/12/13 00:56:22;;;;;;;15.50;11.37;;;;;;;;;;4956705;28;20214;-78
2023/12/13 00:58:52;;;;;;;11.70;10.60;;;;;;;;;;4988166;28;20218;-78
2023/12/13 01:01:18;;;;;;;11.93;10.93;;;;;;;;;;4935545;28;20224;-78
2023/12/13 01:03:46;;;;;;;12.13;10.97;;;;;;;;;;4942344;28;20214;-78
2023/12/13 01:06:14;;;;;;;12.40;11.40;;;;;;;;;;4968957;28;20287;-77
2023/12/13 01:08:44;;;;;;;11.10;10.07;;;;;;;;;;4957266;28;20771;-78
2023/12/13 01:11:10;;;;;;;12.20;11.00;;;;;;;;;;4988658;28;20222;-78
2023/12/13 01:13:36;;;;;;;11.53;10.57;;;;;;;;;;4937097;28;20598;-78
2023/12/13 01:16:06;;;;;;;11.47;10.50;;;;;;;;;;4970182;28;20776;-78
2023/12/13 01:18:32;;;;;;;10.90;10.00;;;;;;;;;;4959984;28;20797;-77
2023/12/13 01:20:57;;;;;;;11.50;10.50;;;;;;;;;;4975329;28;20281;-77
2023/12/13 01:23:27;;;;;;;11.53;10.53;;;;;;;;;;4973074;28;20225;-78
2023/12/13 01:25:54;;;;;;;12.67;11.60;;;;;;;;;;4976750;28;20213;-78
2023/12/13 01:28:22;;;;;;;13.00;11.70;;;;;;;;;;4957577;28;20391;-78
2023/12/13 01:30:52;;;;;;;11.17;10.27;;;;;;;;;;4962492;28;20738;-78
2023/12/13 01:33:22;;;;;;;11.57;10.57;;;;;;;;;;4928169;28;20218;-78
2023/12/13 01:35:48;;;;;;;11.73;10.63;;;;;;;;;;4956463;28;20218;-78
2023/12/13 01:38:13;;;;;;;11.77;10.87;;;;;;;;;;4941614;28;20220;-78
2023/12/13 01:40:53;;;;;;;11.93;10.93;;;;;;;;;;4959631;28;20248;-77
2023/12/13 01:43:23;;;;;;;11.90;10.90;;;;;;;;;;4992303;28;20234;-78
2023/12/13 01:45:53;;;;;;;11.43;10.43;;;;;;;;;;4939256;28;20222;-78
2023/12/13 01:48:22;;;;;;;12.17;11.03;;;;;;;;;;4969795;28;20215;-78
2023/12/13 01:50:48;;;;;;;11.17;10.30;;;;;;;;;;4946685;28;20241;-78
2023/12/13 01:53:14;;;;;;;11.90;10.87;;;;;;;;;;4990599;28;20333;-78
2023/12/13 01:55:39;;;;;;;12.43;11.33;;;;;;;;;;4975291;28;20727;-78
2023/12/13 01:58:07;;;;;;;11.70;10.80;;;;;;;;;;4970407;28;20209;-77
2023/12/13 02:00:38;;;;;;;12.13;11.07;;;;;;;;;;4958112;28;20600;-78
2023/12/13 02:03:03;;;;;;;11.43;10.53;;;;;;;;;;4944940;28;20225;-78
2023/12/13 02:05:31;;;;;;;12.27;11.27;;;;;;;;;;4973794;28;20236;-78
2023/12/13 02:07:59;;;;;;;12.07;11.07;;;;;;;;;;4972117;28;20233;-77
2023/12/13 02:10:27;;;;;;;10.90;10.00;;;;;;;;;;4952796;28;20302;-77
2023/12/13 02:12:55;;;;;;;11.20;10.23;;;;;;;;;;4965324;28;20213;-78
2023/12/13 02:15:23;;;;;;;11.93;10.93;;;;;;;;;;4972258;28;20222;-78
2023/12/13 02:17:54;;;;;;;9.50;8.80;;;;;;;;;;4982026;28;20722;-78
2023/12/13 02:20:22;;;;;;;9.93;9.07;;;;;;;;;;4957270;28;20305;-78
2023/12/13 02:22:52;;;;;;;10.73;9.73;;;;;;;;;;4993145;28;20222;-77
2023/12/13 02:25:42;;;;;;;10.57;9.67;;;;;;;;;;4932305;28;20835;-77
2023/12/13 02:28:10;;;;;;;11.40;10.23;;;;;;;;;;4990700;28;20222;-77
2023/12/13 02:30:35;;;;;;;10.83;9.93;;;;;;;;;;4954067;28;20221;-77
2023/12/13 02:33:03;;;;;;;9.70;8.90;;;;;;;;;;4964645;28;20242;-78
2023/12/13 02:35:29;;;;;;;9.70;8.90;;;;;;;;;;4954929;28;20222;-78
2023/12/13 02:37:57;;;;;;;10.13;9.27;;;;;;;;;;4969824;28;20210;-78
2023/12/13 02:40:25;;;;;;;9.50;8.60;;;;;;;;;;4958007;28;22371;-77
2023/12/13 02:42:50;;;;;;;9.87;9.17;;;;;;;;;;4954394;28;20284;-77
2023/12/13 02:45:21;;;;;;;8.87;8.27;;;;;;;;;;4973772;28;20222;-78
2023/12/13 02:47:52;;;;;;;10.23;9.33;;;;;;;;;;4974381;28;20222;-78
2023/12/13 02:50:21;;;;;;;9.03;8.33;;;;;;;;;;4956076;28;20222;-77
2023/12/13 02:52:46;;;;;;;9.50;8.73;;;;;;;;;;4956236;28;20222;-78
2023/12/13 02:55:14;;;;;;;9.57;8.77;;;;;;;;;;4970756;28;20244;-77
2023/12/13 02:57:40;;;;;;;9.43;8.73;;;;;;;;;;4973978;28;20308;-78
2023/12/13 03:00:06;;;;;;;8.97;8.27;;;;;;;;;;4971840;28;20284;-78
2023/12/13 03:02:34;;;;;;;10.03;9.23;;;;;;;;;;4943725;28;20229;-78
2023/12/13 03:05:01;;;;;;;9.97;9.17;;;;;;;;;;4943585;28;20288;-78
2023/12/13 03:07:27;;;;;;;9.90;9.13;;;;;;;;;;4938211;28;20217;-78
2023/12/13 03:09:52;;;;;;;10.30;9.43;;;;;;;;;;4965116;28;20286;-78
2023/12/13 03:12:22;;;;;;;10.23;9.43;;;;;;;;;;4956340;28;20325;-78
2023/12/13 03:14:48;;;;;;;9.73;8.93;;;;;;;;;;4954725;28;20221;-77
2023/12/13 03:17:15;;;;;;;10.50;9.60;;;;;;;;;;4935633;28;20219;-77
2023/12/13 03:19:41;;;;;;;10.87;9.83;;;;;;;;;;4955037;28;20222;-78
2023/12/13 03:22:10;;;;;;;10.87;9.87;;;;;;;;;;4941109;28;20229;-77
2023/12/13 03:24:37;;;;;;;10.90;9.93;;;;;;;;;;4938629;28;20241;-78
2023/12/13 03:27:03;;;;;;;11.30;10.27;;;;;;;;;;4955006;28;20214;-78
2023/12/13 03:29:32;;;;;;;11.27;10.27;;;;;;;;;;4945138;28;20323;-78
2023/12/13 03:32:00;;;;;;;11.93;9.73;;;;;;;;;;4971352;28;20249;-78
2023/12/13 03:34:25;;;;;;;11.73;9.97;;;;;;;;;;4973056;28;20236;-78
2023/12/13 03:36:51;;;;;;;10.93;10.03;;;;;;;;;;4956814;28;20222;-78
2023/12/13 03:39:16;;;;;;;10.27;9.37;;;;;;;;;;4968695;28;20222;-78
2023/12/13 03:41:42;;;;;;;10.90;10.00;;;;;;;;;;4952987;28;20229;-78
2023/12/13 03:44:12;;;;;;;12.03;10.93;;;;;;;;;;4971487;28;20686;-78
2023/12/13 03:46:40;;;;;;;12.13;11.10;;;;;;;;;;4987632;28;20234;-77
2023/12/13 03:49:08;;;;;;;13.10;11.80;;;;;;;;;;4994232;28;20238;-78
2023/12/13 03:51:46;;;;;;;11.53;10.37;;;;;;;;;;4981311;28;20225;-78
2023/12/13 03:54:14;;;;;;;12.47;11.17;;;;;;;;;;4943844;28;20953;-78
2023/12/13 03:56:40;;;;;;;13.10;11.90;;;;;;;;;;4959994;28;20729;-78
2023/12/13 04:02:52;;;;;;;12.70;11.50;;;;;;;;;;4981958;28;20236;-78
2023/12/13 04:05:18;;;;;;;13.30;11.63;;;;;;;;;;4951349;28;20823;-77
2023/12/13 04:07:43;;;;;;;11.57;10.40;;;;;;;;;;4972405;28;20244;-78
2023/12/13 04:10:12;;;;;;;12.90;11.60;;;;;;;;;;4962480;28;20228;-79
2023/12/13 04:12:40;;;;;;;12.77;11.50;;;;;;;;;;4972286;28;20691;-78
2023/12/13 04:15:08;;;;;;;11.37;10.37;;;;;;;;;;4975051;28;20224;-78
2023/12/13 04:17:34;;;;;;;12.23;10.93;;;;;;;;;;4960106;28;20226;-77
2023/12/13 04:20:04;;;;;;;12.90;10.57;;;;;;;;;;4962079;28;20228;-77
2023/12/13 04:22:34;;;;;;;11.27;9.70;;;;;;;;;;4974366;28;20288;-77
2023/12/13 04:25:02;;;;;;;13.07;11.87;;;;;;;;;;4913908;28;20226;-77
2023/12/13 04:27:28;;;;;;;10.83;9.63;;;;;;;;;;4958276;28;20214;-77
2023/12/13 04:29:53;;;;;;;10.77;9.40;;;;;;;;;;4957722;28;20804;-76
2023/12/13 04:32:21;;;;;;;9.47;8.67;;;;;;;;;;4963355;28;20768;-77
2023/12/13 04:34:49;;;;;;;8.30;7.50;;;;;;;;;;4962880;28;20233;-79
2023/12/13 04:37:16;;;;;;;30.10;27.00;;;;;;;;;;4961699;28;20277;-76
2023/12/13 04:39:42;;;;;;;10.23;9.23;;;;;;;;;;4950860;28;20228;-76
2023/12/13 04:42:12;;;;;;;20.73;17.93;;;;;;;;;;4935568;28;20225;-79
2023/12/13 04:44:40;;;;;;;9.67;8.87;;;;;;;;;;4989322;28;20225;-79
2023/12/13 04:47:08;;;;;;;14.80;13.60;;;;;;;;;;4962911;28;20217;-79
2023/12/13 04:49:36;;;;;;;11.63;10.43;;;;;;;;;;4968781;23;20253;-79
2023/12/13 04:52:07;;;;;;;8.13;7.43;;;;;;;;;;4957514;28;20251;-79
2023/12/13 04:54:33;;;;;;;8.03;7.27;;;;;;;;;;4958762;28;20230;-78
2023/12/13 04:57:00;;;;;;;8.00;7.30;;;;;;;;;;4960649;28;20233;-79
2023/12/13 04:59:29;;;;;;;7.57;6.83;;;;;;;;;;4963113;28;20223;-79
2023/12/13 05:01:55;;;;;;;7.23;6.53;;;;;;;;;;4922214;29;20327;-78
2023/12/13 05:04:25;;;;;;;7.23;6.63;;;;;;;;;;4920543;28;20309;-78
2023/12/13 05:06:51;;;;;;;7.33;6.23;;;;;;;;;;4940045;28;20219;-79
2023/12/13 05:09:17;;;;;;;7.13;6.53;;;;;;;;;;4914990;28;20239;-78
2023/12/13 05:11:42;;;;;;;6.83;6.23;;;;;;;;;;4932757;28;20241;-79
2023/12/13 05:14:10;;;;;;;6.73;6.23;;;;;;;;;;4928186;28;20215;-79
2023/12/13 05:16:38;;;;;;;7.00;6.30;;;;;;;;;;4943548;28;20227;-78
2023/12/13 05:19:05;;;;;;;6.90;6.30;;;;;;;;;;4927685;28;20230;-78
2023/12/13 05:21:33;;;;;;;7.10;6.43;;;;;;;;;;4905446;29;20227;-80
2023/12/13 05:23:59;;;;;;;7.10;6.50;;;;;;;;;;4939229;28;20242;-79
2023/12/13 05:26:24;;;;;;;8.17;7.43;;;;;;;;;;4956628;28;21372;-78
2023/12/13 05:28:50;;;;;;;7.53;6.83;;;;;;;;;;4912500;29;20316;-76
2023/12/13 05:31:22;;;;;;;6.70;6.20;;;;;;;;;;4916131;28;20215;-79
2023/12/13 05:33:48;;;;;;;7.00;6.40;;;;;;;;;;4940660;28;20227;-79
2023/12/13 05:36:13;;;;;;;7.37;6.73;;;;;;;;;;4929883;28;20255;-77
2023/12/13 05:38:40;;;;;;;7.37;6.77;;;;;;;;;;4960376;28;20287;-78
2023/12/13 05:41:05;;;;;;;7.37;6.73;;;;;;;;;;4963576;28;20207;-78
2023/12/13 05:43:34;;;;;;;7.50;6.63;;;;;;;;;;4954889;28;20223;-76
2023/12/13 05:46:02;;;;;;;7.20;6.60;;;;;;;;;;4930403;29;20216;-76
2023/12/13 05:48:30;;;;;;;7.33;6.73;;;;;;;;;;4958528;28;20257;-77
2023/12/13 05:51:00;;;;;;;6.97;6.47;;;;;;;;;;4951698;29;20223;-77
2023/12/13 05:53:29;;;;;;;8.00;7.30;;;;;;;;;;4965842;28;20297;-77
2023/12/13 05:55:54;;;;;;;8.60;7.83;;;;;;;;;;4919268;28;20685;-78
2023/12/13 05:58:23;;;;;;;7.70;7.10;;;;;;;;;;4929684;28;20233;-78
2023/12/13 06:00:51;;;;;;;8.47;7.77;;;;;;;;;;4933877;28;20239;-78
2023/12/13 06:03:16;;;;;;;8.70;8.00;;;;;;;;;;4939848;28;20295;-79
2023/12/13 06:05:42;;;;;;;9.53;8.73;;;;;;;;;;4933796;28;20216;-78
2023/12/13 06:08:09;;;;;;;9.30;8.40;;;;;;;;;;4911606;28;20238;-79
2023/12/13 06:10:35;;;;;;;8.73;8.13;;;;;;;;;;4946500;28;20219;-78
2023/12/13 06:13:03;;;;;;;9.97;9.17;;;;;;;;;;4935085;29;20231;-78
2023/12/13 06:15:32;;;;;;;10.40;9.53;;;;;;;;;;4902951;28;20224;-78
2023/12/13 06:17:57;;;;;;;11.13;10.13;;;;;;;;;;4934884;29;20310;-78
2023/12/13 06:20:26;;;;;;;10.97;10.07;;;;;;;;;;4935058;28;20224;-78
2023/12/13 06:22:51;;;;;;;11.37;10.37;;;;;;;;;;4927696;28;20226;-77
2023/12/13 06:25:19;;;;;;;11.90;10.80;;;;;;;;;;4916417;28;20254;-77
2023/12/13 06:27:45;;;;;;;12.70;11.60;;;;;;;;;;4942955;28;20251;-78
2023/12/13 06:30:10;;;;;;;12.87;11.73;;;;;;;;;;4928141;28;20219;-79
2023/12/13 06:32:39;;;;;;;13.37;12.17;;;;;;;;;;4952573;28;20289;-77
2023/12/13 06:35:08;;;;;;;13.73;12.53;;;;;;;;;;4942495;28;20219;-78
2023/12/13 06:37:34;;;;;;;13.90;12.73;;;;;;;;;;4945431;28;20229;-78
2023/12/13 06:40:04;;;;;;;13.97;12.70;;;;;;;;;;4931645;29;20305;-78
2023/12/13 06:42:29;;;;;;;14.37;13.03;;;;;;;;;;4938009;28;20243;-78
2023/12/13 06:44:57;;;;;;;14.93;13.63;;;;;;;;;;4960343;28;20219;-78
2023/12/13 06:47:26;;;;;;;15.00;13.70;;;;;;;;;;4921927;28;20291;-79
2023/12/13 06:49:51;;;;;;;16.73;15.10;;;;;;;;;;4945728;28;20214;-78
2023/12/13 06:52:19;;;;;;;16.03;14.63;;;;;;;;;;4946219;28;20222;-79
2023/12/13 06:54:45;;;;;;;16.87;15.27;;;;;;;;;;4946023;28;20219;-79
2023/12/13 06:57:12;;;;;;;15.33;13.93;;;;;;;;;;4943329;28;20257;-78
2023/12/13 06:59:40;;;;;;;16.43;14.87;;;;;;;;;;4941519;28;20242;-76
2023/12/13 07:02:06;;;;;;;16.57;14.87;;;;;;;;;;4914822;28;20618;-78
2023/12/13 07:04:35;;;;;;;16.73;15.13;;;;;;;;;;4942701;28;20235;-79
2023/12/13 07:07:01;;;;;;;16.87;15.37;;;;;;;;;;4942006;28;20211;-78
2023/12/13 07:09:30;;;;;;;17.00;15.37;;;;;;;;;;4902783;28;20246;-78
2023/12/13 07:11:55;;;;;;;18.43;16.07;;;;;;;;;;4911078;29;20219;-79
2023/12/13 07:14:21;;;;;;;18.10;16.30;;;;;;;;;;4918943;28;20781;-78
2023/12/13 07:16:46;;;;;;;18.27;16.30;;;;;;;;;;4940372;28;20255;-78
2023/12/13 07:19:16;;;;;;;21.60;19.30;;;;;;;;;;4927663;28;20227;-78
2023/12/13 07:21:45;;;;;;;19.00;17.07;;;;;;;;;;4924445;28;20227;-79
2023/12/13 07:24:13;;;;;;;18.83;16.90;;;;;;;;;;4928978;28;20237;-79
2023/12/13 07:26:39;;;;;;;16.63;15.10;;;;;;;;;;4925045;29;20274;-78
2023/12/13 07:29:05;;;;;;;16.77;15.10;;;;;;;;;;4936432;28;20638;-77
2023/12/13 07:31:30;;;;;;;20.07;16.17;;;;;;;;;;4937225;28;20259;-77
2023/12/13 07:33:57;;;;;;;17.23;15.47;;;;;;;;;;4918585;28;20243;-77
2023/12/13 07:36:25;;;;;;;18.03;16.20;;;;;;;;;;4941123;28;20327;-77
2023/12/13 07:38:50;;;;;;;18.47;16.33;;;;;;;;;;4929238;28;20262;-77
2023/12/13 07:41:16;;;;;;;18.57;16.67;;;;;;;;;;4925970;28;20222;-77
2023/12/13 07:43:42;;;;;;;17.67;15.87;;;;;;;;;;4942967;28;20261;-76
2023/12/13 07:46:08;;;;;;;19.27;17.27;;;;;;;;;;4932306;28;20219;-78
2023/12/13 07:48:34;;;;;;;20.43;16.50;;;;;;;;;;4896592;28;20239;-77
2023/12/13 07:50:59;;;;;;;16.67;15.00;;;;;;;;;;4927056;28;20215;-76
2023/12/13 07:53:27;;;;;;;18.23;16.63;;;;;;;;;;4891131;28;20809;-77
2023/12/13 07:55:58;;;;;;;18.50;16.70;;;;;;;;;;4946379;28;20696;-78
2023/12/13 07:58:23;;;;;;;18.63;16.80;;;;;;;;;;4917004;28;20520;-77
2023/12/13 08:00:49;;;;;;;18.33;16.57;;;;;;;;;;4914435;29;20275;-77
2023/12/13 08:03:18;;;;;;;19.10;17.07;;;;;;;;;;4943175;28;20235;-77
2023/12/13 08:05:46;;;;;;;16.93;15.33;;;;;;;;;;4911295;29;20322;-77
2023/12/13 08:08:12;;;;;;;19.93;17.30;;;;;;;;;;4931738;28;20244;-77
2023/12/13 08:10:37;;;;;;;17.50;15.70;;;;;;;;;;4946346;28;20228;-77
2023/12/13 08:13:07;;;;;;;16.13;14.30;;;;;;;;;;4945740;28;20219;-78
2023/12/13 08:15:35;;;;;;;15.13;13.80;;;;;;;;;;4919400;29;20222;-76
2023/12/13 08:18:01;;;;;;;15.53;14.13;;;;;;;;;;4973100;28;20302;-76
2023/12/13 08:20:29;;;;;;;14.73;13.23;;;;;;;;;;4942025;28;20609;-77
2023/12/13 08:22:58;;;;;;;14.60;13.10;;;;;;;;;;4931087;29;20784;-77
2023/12/13 08:25:23;;;;;;;14.80;13.47;;;;;;;;;;4907530;28;20250;-77
2023/12/13 08:27:55;;;;;;;14.23;12.97;;;;;;;;;;4916353;29;20230;-77
2023/12/13 08:30:21;;;;;;;15.10;13.30;;;;;;;;;;4910979;28;20223;-77
2023/12/13 08:32:49;;;;;;;14.33;13.00;;;;;;;;;;4914225;29;20223;-77
2023/12/13 08:35:14;;;;;;;12.37;11.27;;;;;;;;;;4931122;28;20216;-77
2023/12/13 08:37:40;;;;;;;12.87;11.67;;;;;;;;;;4913882;29;20285;-77
2023/12/13 08:40:08;;;;;;;13.60;12.30;;;;;;;;;;4920981;28;20760;-77
2023/12/13 08:42:34;;;;;;;12.47;11.27;;;;;;;;;;4942678;28;20686;-77
2023/12/13 08:45:02;;;;;;;12.33;11.13;;;;;;;;;;4927958;29;20236;-78
2023/12/13 08:47:28;;;;;;;13.37;11.97;;;;;;;;;;4916284;29;20235;-78
2023/12/13 08:49:54;;;;;;;14.20;12.70;;;;;;;;;;4933669;29;20223;-78
2023/12/13 08:52:21;;;;;;;14.33;12.73;;;;;;;;;;4925333;28;20293;-78
2023/12/13 08:54:46;;;;;;;13.30;12.00;;;;;;;;;;4932872;28;20227;-77
2023/12/13 08:57:12;;;;;;;14.60;13.10;;;;;;;;;;4931053;28;20247;-78
2023/12/13 08:59:37;;;;;;;15.57;13.93;;;;;;;;;;4948807;28;20639;-79
2023/12/13 09:02:03;;;;;;;15.13;13.50;;;;;;;;;;4926809;28;20219;-77
2023/12/13 09:04:31;;;;;;;14.17;12.67;;;;;;;;;;4915894;29;20250;-79
2023/12/13 09:06:56;;;;;;;14.80;12.37;;;;;;;;;;4909781;29;20226;-79
2023/12/13 09:09:22;;;;;;;16.37;13.13;;;;;;;;;;4932014;28;20646;-79
2023/12/13 09:11:47;;;;;;;14.43;11.93;;;;;;;;;;4926375;28;20646;-79
2023/12/13 09:14:13;;;;;;;13.37;11.97;;;;;;;;;;4917924;28;20233;-79
2023/12/13 09:16:41;;;;;;;13.60;12.20;;;;;;;;;;4893073;28;20220;-78
2023/12/13 09:19:07;;;;;;;13.17;11.73;;;;;;;;;;4925279;28;20242;-79
2023/12/13 09:21:33;;;;;;;13.20;11.60;;;;;;;;;;4928083;28;20258;-78
2023/12/13 09:24:00;;;;;;;16.20;12.93;;;;;;;;;;4923493;28;20261;-79
2023/12/13 09:26:31;;;;;;;14.50;12.80;;;;;;;;;;4924865;28;20601;-79
2023/12/13 09:28:59;;;;;;;16.03;12.57;;;;;;;;;;4923163;28;20317;-79
2023/12/13 09:31:25;;;;;;;13.93;12.30;;;;;;;;;;4911415;28;20220;-79
2023/12/13 09:33:52;;;;;;;13.57;11.60;;;;;;;;;;4943750;28;20218;-79
2023/12/13 09:36:18;;;;;;;14.47;11.10;;;;;;;;;;4927840;29;20224;-79
2023/12/13 09:38:46;;;;;;;11.60;10.50;;;;;;;;;;4942685;28;20224;-80
2023/12/13 09:41:25;;;;;;;11.77;10.43;;;;;;;;;;4917831;28;20652;-79
2023/12/13 09:43:54;;;;;;;11.10;9.90;;;;;;;;;;4926824;28;20226;-77
2023/12/13 09:46:20;;;;;;;12.03;9.83;;;;;;;;;;4914652;28;20223;-80
2023/12/13 09:48:47;;;;;;;9.57;8.67;;;;;;;;;;4920342;28;20314;-79
2023/12/13 09:51:13;;;;;;;9.50;8.70;;;;;;;;;;4918753;28;20711;-78
2023/12/13 09:53:41;;;;;;;9.40;8.60;;;;;;;;;;4930812;29;20227;-78
2023/12/13 09:56:09;;;;;;;9.27;8.47;;;;;;;;;;4948187;28;20216;-77
2023/12/13 09:58:37;;;;;;;9.07;8.27;;;;;;;;;;4943752;28;20302;-78
2023/12/13 10:01:14;;;;;;;7.70;7.00;;;;;;;;;;4943483;28;20732;-79
2023/12/13 10:03:39;;;;;;;7.93;7.23;;;;;;;;;;4946500;28;20234;-78
2023/12/13 10:06:07;;;;;;;7.50;6.90;;;;;;;;;;4943242;28;20215;-78
2023/12/13 10:08:37;;;;;;;7.23;6.53;;;;;;;;;;4940197;28;20301;-78
2023/12/13 10:11:04;;;;;;;6.63;5.70;;;;;;;;;;4959834;28;20285;-78
2023/12/13 10:13:34;;;;;;;6.00;5.40;;;;;;;;;;4930892;29;20223;-79
2023/12/13 10:16:11;;;;;;;6.07;5.47;;;;;;;;;;4936480;28;20222;-79
2023/12/13 10:18:39;;;;;;;6.27;5.77;;;;;;;;;;4918030;29;20231;-79
2023/12/13 10:21:05;;;;;;;5.30;4.80;;;;;;;;;;4931487;28;20270;-79
2023/12/13 10:23:31;;;;;;;7.07;5.20;;;;;;;;;;4957521;28;20243;-79
2023/12/13 10:25:57;;;;;;;5.73;5.00;;;;;;;;;;4929260;28;20224;-79
2023/12/13 10:28:23;;;;;;;5.13;4.73;;;;;;;;;;4928948;28;20246;-78
2023/12/13 10:30:54;;;;;;;5.80;5.30;;;;;;;;;;4916396;29;20218;-80
2023/12/13 10:33:19;;;;;;;5.30;4.80;;;;;;;;;;4913167;28;20219;-79
2023/12/13 10:35:47;;;;;;;6.20;4.80;;;;;;;;;;4930716;28;20230;-78
2023/12/13 10:38:17;;;;;;;5.03;4.50;;;;;;;;;;4939158;28;20283;-78
2023/12/13 10:40:43;;;;;;;4.90;4.50;;;;;;;;;;4933299;28;20214;-78
2023/12/13 10:43:10;;;;;;;4.73;4.40;;;;;;;;;;4932681;28;20234;-78
2023/12/13 10:45:54;;;;;;;4.90;4.50;;;;;;;;;;4951977;28;20226;-77
2023/12/13 10:48:19;;;;;;;4.67;4.27;;;;;;;;;;4962143;28;20316;-77
2023/12/13 10:50:48;;;;;;;4.67;4.27;;;;;;;;;;4935360;28;20227;-78
2023/12/13 10:53:16;;;;;;;4.40;3.70;;;;;;;;;;4921446;28;20209;-77
2023/12/13 10:55:43;;;;;;;4.40;4.10;;;;;;;;;;4928698;28;20223;-77
2023/12/13 10:58:09;;;;;;;4.50;4.10;;;;;;;;;;4930948;28;20227;-77
2023/12/13 11:00:36;;;;;;;4.63;4.23;;;;;;;;;;4934234;28;20235;-77
2023/12/13 11:03:15;;;;;;;5.50;4.30;;;;;;;;;;4945393;28;20755;-79
2023/12/13 11:05:45;;;;;;;3.93;3.63;;;;;;;;;;4960547;28;20240;-76
2023/12/13 11:08:17;;;;;;;4.70;3.70;;;;;;;;;;4919706;28;20303;-78
2023/12/13 11:11:02;;;;;;;4.33;3.93;;;;;;;;;;4919378;29;20230;-78
2023/12/13 11:13:30;;;;;;;4.37;3.97;;;;;;;;;;4947916;28;20737;-78
2023/12/13 11:15:55;;;;;;;5.70;4.33;;;;;;;;;;4927855;28;20230;-78
2023/12/13 11:18:23;;;;;;;4.27;3.97;;;;;;;;;;4915005;28;20222;-77
2023/12/13 11:20:58;;;;;;;4.93;3.80;;;;;;;;;;4927417;28;20263;-79
2023/12/13 11:23:26;;;;;;;4.33;3.93;;;;;;;;;;4936957;28;20259;-78
2023/12/13 11:25:55;;;;;;;3.97;3.63;;;;;;;;;;4928489;28;20227;-79
2023/12/13 11:28:26;;;;;;;3.77;3.47;;;;;;;;;;4933560;28;20267;-78
2023/12/13 11:30:53;;;;;;;4.00;3.70;;;;;;;;;;4913218;29;20233;-78
2023/12/13 11:33:22;;;;;;;3.77;3.47;;;;;;;;;;4944117;28;20584;-78
2023/12/13 11:35:51;;;;;;;3.60;3.30;;;;;;;;;;4933609;28;20241;-76
2023/12/13 11:38:19;;;;;;;3.43;3.20;;;;;;;;;;4919868;28;20234;-78
2023/12/13 11:40:47;;;;;;;3.80;3.43;;;;;;;;;;4925449;28;20227;-78
2023/12/13 11:43:12;;;;;;;3.80;3.50;;;;;;;;;;4931914;28;20234;-79
2023/12/13 11:45:47;;;;;;;3.60;3.30;;;;;;;;;;4929871;29;20227;-78
2023/12/13 11:48:14;;;;;;;3.40;3.10;;;;;;;;;;4941615;28;20229;-78
2023/12/13 11:50:40;;;;;;;4.67;3.63;;;;;;;;;;4944086;28;20234;-79
2023/12/13 11:53:09;;;;;;;3.63;3.00;;;;;;;;;;4943857;28;20226;-79
2023/12/13 11:55:37;;;;;;;4.00;3.10;;;;;;;;;;4932662;28;20226;-79
2023/12/13 11:58:03;;;;;;;3.20;2.90;;;;;;;;;;4909989;28;20664;-77
2023/12/13 12:00:31;;;;;;;2.83;2.63;;;;;;;;;;4933409;29;20238;-79
2023/12/13 12:02:59;;;;;;;2.80;2.60;;;;;;;;;;4932057;28;20596;-80
2023/12/13 12:05:25;;;;;;;2.80;2.60;;;;;;;;;;4925349;28;20737;-78
2023/12/13 12:08:02;;;;;;;3.40;2.97;;;;;;;;;;4944639;28;20231;-79
2023/12/13 12:10:36;;;;;;;2.93;2.73;;;;;;;;;;4927616;28;20734;-80
2023/12/13 12:13:04;;;;;;;2.87;2.57;;;;;;;;;;4930462;28;20213;-77
2023/12/13 12:15:31;;;;;;;2.40;2.20;;;;;;;;;;4933436;29;20290;-77
2023/12/13 12:18:00;;;;;;;2.87;2.57;;;;;;;;;;4924285;29;20235;-77
2023/12/13 12:20:31;;;;;;;2.60;2.40;;;;;;;;;;4945703;28;20225;-78
2023/12/13 12:22:58;;;;;;;2.80;2.60;;;;;;;;;;4962131;28;20242;-77
2023/12/13 12:25:29;;;;;;;3.07;2.67;;;;;;;;;;4932667;28;20254;-77
2023/12/13 12:28:04;;;;;;;2.30;2.10;;;;;;;;;;4950503;28;20230;-76
2023/12/13 12:30:29;;;;;;;4.50;2.13;;;;;;;;;;4943581;28;20314;-79
2023/12/13 12:32:55;;;;;;;3.97;3.20;;;;;;;;;;4934745;28;20692;-79
2023/12/13 12:35:20;;;;;;;2.87;2.67;;;;;;;;;;4943221;28;20230;-78
2023/12/13 12:37:48;;;;;;;2.20;2.00;;;;;;;;;;4934921;28;20668;-79
2023/12/13 12:40:13;;;;;;;2.93;2.73;;;;;;;;;;4944154;28;20222;-79
2023/12/13 12:42:41;;;;;;;2.73;2.53;;;;;;;;;;4924511;28;20233;-78
2023/12/13 12:45:07;;;;;;;3.53;2.77;;;;;;;;;;4915426;28;20282;-78
2023/12/13 12:47:33;;;;;;;2.50;2.30;;;;;;;;;;4942876;28;20219;-79
2023/12/13 12:49:58;;;;;;;3.43;2.10;;;;;;;;;;4946217;28;20281;-78
2023/12/13 12:52:27;;;;;;;2.63;2.43;;;;;;;;;;4909571;28;21286;-78
2023/12/13 12:54:52;;;;;;;2.00;1.90;;;;;;;;;;4949872;28;20700;-78
2023/12/13 12:57:18;;;;;;;2.00;1.83;;;;;;;;;;4926604;28;20219;-79
2023/12/13 12:59:50;;;;;;;2.97;2.77;;;;;;;;;;4932750;28;20227;-78
2023/12/13 13:02:15;;;;;;;2.90;2.70;;;;;;;;;;4920213;28;20286;-79
2023/12/13 13:04:41;;;;;;;2.77;2.57;;;;;;;;;;4919209;28;20223;-78
2023/12/13 13:07:07;;;;;;;3.93;3.23;;;;;;;;;;4924163;28;20231;-78
2023/12/13 13:09:34;;;;;;;1.80;1.70;;;;;;;;;;4945129;28;20228;-79
2023/12/13 13:12:05;;;;;;;4.67;4.30;;;;;;;;;;4944287;28;20228;-79
2023/12/13 13:14:33;;;;;;;3.63;3.33;;;;;;;;;;4930972;28;20227;-78
2023/12/13 13:17:00;;;;;;;3.43;3.13;;;;;;;;;;4932940;28;20233;-78
2023/12/13 13:19:26;;;;;;;2.70;2.53;;;;;;;;;;4931386;28;20226;-77
2023/12/13 13:21:51;;;;;;;2.90;2.70;;;;;;;;;;4950032;28;20730;-77
2023/12/13 13:24:17;;;;;;;2.10;2.00;;;;;;;;;;4919008;28;20262;-78
2023/12/13 13:26:42;;;;;;;1.90;1.80;;;;;;;;;;4951123;28;20231;-80
2023/12/13 13:29:08;;;;;;;2.70;2.50;;;;;;;;;;4968054;28;20259;-78
2023/12/13 13:31:34;;;;;;;2.30;2.10;;;;;;;;;;4928322;29;20553;-78
2023/12/13 13:34:01;;;;;;;2.20;2.10;;;;;;;;;;4943429;28;20223;-78
2023/12/13 13:36:27;;;;;;;3.97;2.53;;;;;;;;;;4901050;28;20237;-77
2023/12/13 13:38:55;;;;;;;2.20;2.10;;;;;;;;;;4920257;29;20347;-78
2023/12/13 13:41:21;;;;;;;3.63;2.70;;;;;;;;;;4934394;28;20927;-78
2023/12/13 13:43:49;;;;;;;1.87;1.70;;;;;;;;;;4961843;28;20722;-77
2023/12/13 13:46:16;;;;;;;1.90;1.73;;;;;;;;;;4945035;28;20227;-78
2023/12/13 13:48:42;;;;;;;2.30;2.20;;;;;;;;;;4952150;28;20552;-78
2023/12/13 13:51:07;;;;;;;2.00;1.90;;;;;;;;;;4936818;28;20680;-78
2023/12/13 13:53:35;;;;;;;2.73;2.53;;;;;;;;;;4936875;28;20238;-78
2023/12/13 13:56:03;;;;;;;2.40;1.60;;;;;;;;;;4942672;28;20716;-78
2023/12/13 13:58:29;;;;;;;2.77;2.57;;;;;;;;;;4919944;28;20235;-78
2023/12/13 14:00:55;;;;;;;1.90;1.80;;;;;;;;;;4944847;28;20219;-77
2023/12/13 14:03:20;;;;;;;1.93;1.70;;;;;;;;;;4921763;28;20230;-77
2023/12/13 14:05:46;;;;;;;2.23;2.10;;;;;;;;;;4921199;29;20223;-78
2023/12/13 14:08:13;;;;;;;2.13;1.90;;;;;;;;;;4948793;28;20230;-78
2023/12/13 14:10:43;;;;;;;2.20;2.10;;;;;;;;;;4898677;29;20614;-77
2023/12/13 14:13:11;;;;;;;1.77;1.67;;;;;;;;;;4948250;28;20644;-78
2023/12/13 14:15:39;;;;;;;2.00;1.90;;;;;;;;;;4908285;29;20239;-77
2023/12/13 14:18:08;;;;;;;1.90;1.80;;;;;;;;;;4931619;28;20278;-77
2023/12/13 14:20:34;;;;;;;1.60;1.50;;;;;;;;;;4917954;28;20622;-78
2023/12/13 14:22:59;;;;;;;2.90;1.97;;;;;;;;;;4913942;28;20226;-76
2023/12/13 14:25:33;;;;;;;1.93;1.70;;;;;;;;;;4963996;28;20222;-79
2023/12/13 14:27:59;;;;;;;2.47;2.27;;;;;;;;;;4937497;29;20692;-79
2023/12/13 14:30:25;;;;;;;2.23;2.13;;;;;;;;;;4950999;28;20289;-79
2023/12/13 14:32:50;;;;;;;2.07;1.97;;;;;;;;;;4924336;29;20227;-79
2023/12/13 14:35:16;;;;;;;2.10;2.00;;;;;;;;;;4914318;28;20235;-78